Time;durP1;ratioP1;P1;durP2;ratioP2;P2;SDS_P1;SDS_P2;PMS_P1;PMS_P2;Temp;Humidity;BMP_temperature;BMP_pressure;BME280_temperature;BME280_humidity;BME280_pressure;Samples;Min_cycle;Max_cycle;Signal;HPM_P1;HPM_P2
2023/06/07 00:01:43;;;;;;;9.60;3.97;;;12.20;99.90;;;;;;5011953;28;20376;-72
2023/06/07 00:04:11;;;;;;;12.40;3.17;;;12.20;99.90;;;;;;5012913;28;20463;-71
2023/06/07 00:06:39;;;;;;;6.70;3.42;;;12.20;99.90;;;;;;5015432;28;20026;-65
2023/06/07 00:09:07;;;;;;;6.47;3.70;;;12.20;99.90;;;;;;5014447;28;20843;-72
2023/06/07 00:11:33;;;;;;;9.15;3.85;;;12.20;99.90;;;;;;5010004;28;20026;-72
2023/06/07 00:13:59;;;;;;;15.17;3.87;;;12.20;99.90;;;;;;5010652;28;20026;-71
2023/06/07 00:16:26;;;;;;;4.60;3.17;;;12.20;99.90;;;;;;5013257;28;20025;-72
2023/06/07 00:18:52;;;;;;;15.65;5.40;;;12.10;99.90;;;;;;5014361;28;20085;-72
2023/06/07 00:21:22;;;;;;;9.77;3.50;;;12.10;99.90;;;;;;5014261;28;20137;-72
2023/06/07 00:23:48;;;;;;;8.13;3.63;;;12.10;99.90;;;;;;5013462;28;20377;-66
2023/06/07 00:26:14;;;;;;;9.65;3.33;;;12.00;99.90;;;;;;5013223;28;20122;-72
2023/06/07 00:28:40;;;;;;;12.00;3.65;;;12.00;99.90;;;;;;5014852;28;20088;-72
2023/06/07 00:31:06;;;;;;;8.73;4.20;;;12.00;99.90;;;;;;5013790;28;20033;-71
2023/06/07 00:33:33;;;;;;;7.13;3.27;;;12.00;99.90;;;;;;5014481;28;20030;-71
2023/06/07 00:35:59;;;;;;;;;;;12.00;99.90;;;;;;5013801;28;20123;-72
2023/06/07 00:38:25;;;;;;;6.10;2.60;;;12.00;99.90;;;;;;5015691;28;19960;-72
2023/06/07 00:40:51;;;;;;;11.83;3.40;;;12.00;99.90;;;;;;5013899;28;20037;-65
2023/06/07 00:43:17;;;;;;;4.82;2.63;;;11.90;99.90;;;;;;5012943;28;20030;-72
2023/06/07 00:45:43;;;;;;;9.57;3.55;;;11.90;99.90;;;;;;5015463;28;20029;-67
2023/06/07 00:48:10;;;;;;;7.63;3.37;;;11.90;99.90;;;;;;5013606;28;20080;-72
2023/06/07 00:50:36;;;;;;;;;;;11.90;99.90;;;;;;5015646;28;20026;-73
2023/06/07 00:53:03;;;;;;;7.63;3.13;;;11.90;99.90;;;;;;5014938;28;20319;-66
2023/06/07 00:55:28;;;;;;;;;;;11.90;99.90;;;;;;5015785;28;20123;-72
2023/06/07 00:57:56;;;;;;;8.27;3.63;;;11.80;99.90;;;;;;5015740;28;20295;-65
2023/06/07 01:00:22;;;;;;;7.07;3.30;;;11.80;99.90;;;;;;5014758;28;20033;-67
2023/06/07 01:02:49;;;;;;;6.00;3.10;;;11.80;99.90;;;;;;5015026;28;20038;-72
2023/06/07 01:05:17;;;;;;;8.02;3.03;;;11.80;99.90;;;;;;5014185;28;20030;-66
2023/06/07 01:07:47;;;;;;;8.50;3.30;;;11.70;99.90;;;;;;5014613;28;20029;-72
2023/06/07 01:10:14;;;;;;;16.35;3.38;;;11.70;99.90;;;;;;5014523;28;20030;-72
2023/06/07 01:12:43;;;;;;;5.53;2.70;;;11.70;99.90;;;;;;5015418;28;20033;-72
2023/06/07 01:15:14;;;;;;;5.45;3.13;;;11.70;99.90;;;;;;5014834;28;20057;-72
2023/06/07 01:17:44;;;;;;;7.95;2.95;;;11.70;99.90;;;;;;5012760;28;20417;-66
2023/06/07 01:20:17;;;;;;;9.55;3.28;;;11.70;99.90;;;;;;5014187;28;20117;-67
2023/06/07 01:22:45;;;;;;;12.07;3.15;;;11.70;99.90;;;;;;5004993;28;20474;-65
2023/06/07 01:25:12;;;;;;;17.15;4.50;;;11.70;99.90;;;;;;5013439;28;20049;-70
2023/06/07 01:27:40;;;;;;;7.95;3.40;;;11.60;99.90;;;;;;5013897;28;20075;-72
2023/06/07 01:30:08;;;;;;;11.25;2.50;;;11.60;99.90;;;;;;5014289;28;20428;-72
2023/06/07 01:32:36;;;;;;;8.95;3.63;;;11.60;99.90;;;;;;5013203;28;20112;-72
2023/06/07 01:35:03;;;;;;;12.88;4.00;;;11.60;99.90;;;;;;5014140;28;20349;-72
2023/06/07 01:37:31;;;;;;;7.22;3.00;;;11.60;99.90;;;;;;5019864;28;20042;-72
2023/06/07 01:39:57;;;;;;;9.25;2.92;;;11.60;99.90;;;;;;5013963;28;20464;-72
2023/06/07 01:42:23;;;;;;;10.70;3.13;;;11.60;99.90;;;;;;5013729;28;20113;-72
2023/06/07 01:44:51;;;;;;;7.35;3.15;;;11.50;99.90;;;;;;5005135;28;20029;-73
2023/06/07 01:47:17;;;;;;;12.18;3.15;;;11.60;99.90;;;;;;5013546;28;20112;-65
2023/06/07 01:49:44;;;;;;;7.88;3.35;;;11.50;99.90;;;;;;5012302;28;20541;-72
2023/06/07 01:52:10;;;;;;;;;;;11.50;99.90;;;;;;5013085;28;20037;-72
2023/06/07 01:54:37;;;;;;;9.73;3.38;;;11.50;99.90;;;;;;5009895;28;19910;-72
2023/06/07 01:57:09;;;;;;;12.27;3.67;;;11.50;99.90;;;;;;5013596;28;20042;-67
2023/06/07 01:59:55;;;;;;;8.25;2.85;;;11.50;99.90;;;;;;5013527;28;20439;-73
2023/06/07 02:03:01;;;;;;;12.93;3.05;;;11.50;99.90;;;;;;5012675;28;22281;-67
2023/06/07 02:05:34;;;;;;;12.30;3.60;;;11.40;99.90;;;;;;5012954;28;20455;-66
2023/06/07 02:08:12;;;;;;;11.18;3.45;;;11.40;99.90;;;;;;5013446;28;20030;-72
2023/06/07 02:10:40;;;;;;;6.25;3.17;;;11.40;99.90;;;;;;5013162;28;20541;-66
2023/06/07 02:13:08;;;;;;;12.65;3.53;;;11.30;99.90;;;;;;5013777;28;20030;-72
2023/06/07 02:15:34;;;;;;;16.73;3.38;;;11.30;99.90;;;;;;5012232;28;20041;-72
2023/06/07 02:18:04;;;;;;;10.48;3.58;;;11.30;99.90;;;;;;5013787;28;20034;-68
2023/06/07 02:20:33;;;;;;;9.43;3.55;;;11.30;99.90;;;;;;5022589;28;20040;-66
2023/06/07 02:22:59;;;;;;;5.88;2.75;;;11.40;99.90;;;;;;5022891;28;20325;-72
2023/06/07 02:25:25;;;;;;;12.57;3.67;;;11.40;99.90;;;;;;5028935;28;20157;-65
2023/06/07 02:27:52;;;;;;;6.63;2.95;;;11.30;99.90;;;;;;5026690;28;20026;-66
2023/06/07 02:30:19;;;;;;;;;;;11.30;99.90;;;;;;5028748;28;20025;-72
2023/06/07 02:32:48;;;;;;;7.40;2.65;;;11.30;99.90;;;;;;5028204;28;19909;-72
2023/06/07 02:35:16;;;;;;;10.40;3.65;;;11.30;99.90;;;;;;5022730;28;20132;-72
2023/06/07 02:37:42;;;;;;;11.98;3.83;;;11.30;99.90;;;;;;5033096;28;20061;-72
2023/06/07 02:40:09;;;;;;;10.47;3.47;;;11.30;99.90;;;;;;5029992;28;20057;-66
2023/06/07 02:42:36;;;;;;;7.10;3.65;;;11.30;99.90;;;;;;5024450;28;20413;-67
2023/06/07 02:45:03;;;;;;;8.93;3.40;;;11.30;99.90;;;;;;5022630;28;20070;-67
2023/06/07 02:47:30;;;;;;;19.52;3.63;;;11.30;99.90;;;;;;5031651;28;20025;-72
2023/06/07 02:49:57;;;;;;;11.35;2.83;;;11.20;99.90;;;;;;5030363;28;20096;-66
2023/06/07 02:52:25;;;;;;;4.43;2.85;;;11.30;99.90;;;;;;5028954;28;20068;-72
2023/06/07 02:54:51;;;;;;;10.88;2.67;;;11.30;99.90;;;;;;5030570;28;20041;-72
2023/06/07 02:57:17;;;;;;;9.95;2.63;;;11.20;99.90;;;;;;5034136;28;20046;-65
2023/06/07 02:59:44;;;;;;;9.85;3.05;;;11.20;99.90;;;;;;5030409;28;20030;-72
2023/06/07 03:02:10;;;;;;;;;;;11.30;99.90;;;;;;5028152;28;20030;-67
2023/06/07 03:04:38;;;;;;;9.65;3.53;;;11.30;99.90;;;;;;5031585;28;19940;-72
2023/06/07 03:07:05;;;;;;;9.57;3.20;;;11.30;99.90;;;;;;5016864;28;20109;-66
2023/06/07 03:09:31;;;;;;;4.30;2.53;;;11.30;99.90;;;;;;5017035;28;20502;-72
2023/06/07 03:11:57;;;;;;;8.77;3.37;;;11.30;99.90;;;;;;5016969;28;20018;-72
2023/06/07 03:14:23;;;;;;;7.60;2.67;;;11.30;99.90;;;;;;5016800;28;20447;-72
2023/06/07 03:16:50;;;;;;;8.87;2.97;;;11.30;99.90;;;;;;5017322;28;20022;-72
2023/06/07 03:19:16;;;;;;;8.13;3.25;;;11.30;99.90;;;;;;5015722;28;20025;-66
2023/06/07 03:21:44;;;;;;;8.30;2.67;;;11.20;99.90;;;;;;5016634;28;20323;-73
2023/06/07 03:24:13;;;;;;;6.63;2.50;;;11.20;99.90;;;;;;5016623;28;20038;-66
2023/06/07 03:26:40;;;;;;;5.70;2.80;;;11.20;99.90;;;;;;5016815;28;20030;-72
2023/06/07 03:29:06;;;;;;;;;;;11.30;99.90;;;;;;5015838;28;20022;-72
2023/06/07 03:31:32;;;;;;;8.98;3.28;;;11.30;99.90;;;;;;5015796;28;19956;-72
2023/06/07 03:33:58;;;;;;;4.25;2.55;;;11.30;99.90;;;;;;5015556;28;20049;-71
2023/06/07 03:36:28;;;;;;;7.00;2.75;;;11.30;99.90;;;;;;5016201;28;20034;-72
2023/06/07 03:38:55;;;;;;;6.13;3.25;;;11.30;99.90;;;;;;5016159;28;20030;-74
2023/06/07 03:41:21;;;;;;;5.75;3.10;;;11.30;99.90;;;;;;5015780;28;20043;-72
2023/06/07 03:43:47;;;;;;;5.13;2.53;;;11.30;99.90;;;;;;5016055;28;20489;-72
2023/06/07 03:46:13;;;;;;;6.07;2.50;;;11.30;99.90;;;;;;5016987;28;20026;-66
2023/06/07 03:48:39;;;;;;;10.63;3.13;;;11.30;99.90;;;;;;5016537;28;20111;-72
2023/06/07 03:51:06;;;;;;;10.07;3.23;;;11.40;99.90;;;;;;5015750;28;20082;-72
2023/06/07 03:53:32;;;;;;;7.13;2.75;;;11.40;99.90;;;;;;5016280;28;20098;-67
2023/06/07 03:55:58;;;;;;;17.02;3.28;;;11.40;99.90;;;;;;5015426;28;20132;-72
2023/06/07 03:58:24;;;;;;;7.83;2.30;;;11.40;99.90;;;;;;5015665;28;20168;-67
2023/06/07 04:00:54;;;;;;;5.50;3.22;;;11.40;99.90;;;;;;5016156;28;20038;-73
2023/06/07 04:03:24;;;;;;;9.88;2.90;;;11.50;99.90;;;;;;5014943;28;20185;-72
2023/06/07 04:05:50;;;;;;;12.40;2.25;;;11.50;99.90;;;;;;5025896;28;20021;-73
2023/06/07 04:08:16;;;;;;;10.10;3.13;;;11.50;99.90;;;;;;5018082;28;20100;-67
2023/06/07 04:10:42;;;;;;;11.73;3.07;;;11.60;99.90;;;;;;5011104;28;20077;-67
2023/06/07 04:13:09;;;;;;;13.60;4.33;;;11.70;99.90;;;;;;5014273;28;20271;-72
2023/06/07 04:15:34;;;;;;;13.63;2.67;;;11.70;99.90;;;;;;5013614;28;20033;-67
2023/06/07 04:18:00;;;;;;;10.93;2.67;;;11.70;99.90;;;;;;5015898;28;20025;-72
2023/06/07 04:20:30;;;;;;;5.40;2.10;;;11.80;99.90;;;;;;5014358;28;20080;-72
2023/06/07 04:22:56;;;;;;;11.38;2.75;;;11.80;99.90;;;;;;5013498;28;20070;-72
2023/06/07 04:25:27;;;;;;;4.63;2.33;;;11.80;99.90;;;;;;5013903;28;20050;-72
2023/06/07 04:27:59;;;;;;;8.18;2.47;;;11.80;99.90;;;;;;5016438;28;20037;-70
2023/06/07 04:30:34;;;;;;;9.80;2.70;;;11.90;99.90;;;;;;5015096;28;20036;-65
2023/06/07 04:33:10;;;;;;;5.80;2.65;;;12.00;99.90;;;;;;5012083;28;20413;-73
2023/06/07 04:35:37;;;;;;;6.25;2.53;;;12.00;99.90;;;;;;5014844;28;20135;-72
2023/06/07 04:38:03;;;;;;;5.47;2.60;;;12.00;99.90;;;;;;5015756;28;20041;-72
2023/06/07 04:40:31;;;;;;;7.55;2.47;;;12.00;99.90;;;;;;5016017;28;20064;-73
2023/06/07 04:43:05;;;;;;;16.40;3.53;;;12.00;99.90;;;;;;5015147;28;20359;-72
2023/06/07 04:45:39;;;;;;;5.20;2.38;;;12.10;99.90;;;;;;5015491;28;20898;-65
2023/06/07 04:48:07;;;;;;;5.32;2.40;;;12.10;99.90;;;;;;5014854;28;20050;-67
2023/06/07 04:50:38;;;;;;;5.35;2.28;;;12.20;99.90;;;;;;5022599;28;20324;-72
2023/06/07 04:53:05;;;;;;;6.35;2.67;;;12.20;99.90;;;;;;5014289;28;20026;-66
2023/06/07 04:55:34;;;;;;;4.00;1.92;;;12.20;99.90;;;;;;5015604;28;20041;-65
2023/06/07 04:58:04;;;;;;;6.40;1.85;;;12.20;99.90;;;;;;5015523;28;20068;-73
2023/06/07 05:00:30;;;;;;;8.75;2.70;;;12.20;99.90;;;;;;5015661;28;20021;-72
2023/06/07 05:02:58;;;;;;;6.75;2.20;;;12.20;99.90;;;;;;5015846;28;20109;-72
2023/06/07 05:05:24;;;;;;;4.50;2.53;;;12.30;99.90;;;;;;5018050;28;20037;-73
2023/06/07 05:07:50;;;;;;;9.15;2.47;;;12.30;99.90;;;;;;5014779;28;20124;-69
2023/06/07 05:10:17;;;;;;;5.53;1.77;;;12.40;99.90;;;;;;5020725;28;20105;-72
2023/06/07 05:12:43;;;;;;;7.68;2.42;;;12.40;99.90;;;;;;5013414;28;20030;-66
2023/06/07 05:15:10;;;;;;;9.25;2.25;;;12.30;99.90;;;;;;5014327;28;20045;-72
2023/06/07 05:17:36;;;;;;;8.10;2.33;;;12.30;99.90;;;;;;5007822;28;20026;-65
2023/06/07 05:20:08;;;;;;;5.07;1.88;;;12.40;99.90;;;;;;5007278;28;20088;-65
2023/06/07 05:22:34;;;;;;;4.80;2.08;;;12.40;99.90;;;;;;5014460;28;20056;-66
2023/06/07 05:25:00;;;;;;;5.80;2.27;;;12.40;99.90;;;;;;5014154;28;20029;-73
2023/06/07 05:27:26;;;;;;;6.53;3.00;;;12.50;99.90;;;;;;5013646;28;20109;-72
2023/06/07 05:29:51;;;;;;;12.50;2.43;;;12.50;99.90;;;;;;5023211;28;20041;-66
2023/06/07 05:32:17;;;;;;;21.50;3.07;;;12.50;99.90;;;;;;5027553;28;20093;-66
2023/06/07 05:34:45;;;;;;;9.20;3.33;;;12.50;99.90;;;;;;5015909;28;20048;-72
2023/06/07 05:37:14;;;;;;;7.95;2.00;;;12.50;99.90;;;;;;5015092;28;20325;-65
2023/06/07 05:39:41;;;;;;;8.93;2.65;;;12.50;99.90;;;;;;5017364;28;20398;-73
2023/06/07 05:42:07;;;;;;;6.32;1.88;;;12.60;99.90;;;;;;5015829;28;20440;-72
2023/06/07 05:44:34;;;;;;;4.00;2.08;;;12.60;99.90;;;;;;5014182;28;20022;-65
2023/06/07 05:47:00;;;;;;;9.43;2.20;;;12.60;99.90;;;;;;5011603;28;20030;-68
2023/06/07 05:49:26;;;;;;;8.85;2.78;;;12.70;99.90;;;;;;5015247;28;20026;-72
2023/06/07 05:51:52;;;;;;;16.83;2.97;;;12.70;99.90;;;;;;5016355;28;20037;-67
2023/06/07 05:54:18;;;;;;;4.77;2.00;;;12.80;99.90;;;;;;5018499;28;20108;-66
2023/06/07 05:56:43;;;;;;;6.33;2.30;;;12.80;99.90;;;;;;5020942;28;20478;-66
2023/06/07 05:59:09;;;;;;;12.57;2.97;;;12.80;99.90;;;;;;5020393;28;20030;-67
2023/06/07 06:01:40;;;;;;;2.90;1.80;;;12.70;99.90;;;;;;5019600;28;20018;-67
2023/06/07 06:04:06;;;;;;;5.75;2.30;;;12.70;99.90;;;;;;5020011;28;20045;-66
2023/06/07 06:06:31;;;;;;;8.03;2.17;;;12.60;99.90;;;;;;5021252;28;20029;-67
2023/06/07 06:08:57;;;;;;;6.57;2.80;;;12.60;99.90;;;;;;5019805;28;20484;-67
2023/06/07 06:11:23;;;;;;;14.07;2.70;;;12.70;99.90;;;;;;5019874;28;20136;-66
2023/06/07 06:13:50;;;;;;;7.70;2.53;;;12.60;99.90;;;;;;5017917;28;20072;-72
2023/06/07 06:16:16;;;;;;;7.47;2.58;;;12.60;99.90;;;;;;5017201;28;20030;-68
2023/06/07 06:18:42;;;;;;;6.27;2.37;;;12.60;99.90;;;;;;5023384;28;20038;-66
2023/06/07 06:21:08;;;;;;;11.88;2.78;;;12.60;99.90;;;;;;5013800;28;20026;-66
2023/06/07 06:23:35;;;;;;;6.00;2.22;;;12.70;99.90;;;;;;5011085;28;20038;-69
2023/06/07 06:26:01;;;;;;;8.93;2.22;;;12.70;99.90;;;;;;5017521;28;20373;-65
2023/06/07 06:28:28;;;;;;;10.53;1.87;;;12.70;99.90;;;;;;5017646;28;20072;-68
2023/06/07 06:30:55;;;;;;;;;;;12.70;99.90;;;;;;5019595;28;20033;-73
2023/06/07 06:33:21;;;;;;;5.65;2.47;;;12.80;99.90;;;;;;5026074;28;19927;-67
2023/06/07 06:35:47;;;;;;;7.77;2.23;;;12.80;99.90;;;;;;5027109;28;20100;-66
2023/06/07 06:38:13;;;;;;;10.80;2.90;;;12.80;99.90;;;;;;5032224;28;20033;-68
2023/06/07 06:40:39;;;;;;;6.72;2.65;;;12.90;99.90;;;;;;5021554;28;20025;-67
2023/06/07 06:43:05;;;;;;;18.05;3.25;;;12.90;99.90;;;;;;5032429;28;20029;-65
2023/06/07 06:45:31;;;;;;;5.70;2.47;;;12.90;99.90;;;;;;5025740;28;20092;-66
2023/06/07 06:47:58;;;;;;;7.13;2.30;;;12.90;99.90;;;;;;5031789;28;20029;-68
2023/06/07 06:50:24;;;;;;;15.77;2.67;;;12.90;99.90;;;;;;5026443;28;20321;-65
2023/06/07 06:52:50;;;;;;;8.80;2.13;;;12.90;99.90;;;;;;5030685;28;20029;-67
2023/06/07 06:55:18;;;;;;;7.33;2.30;;;12.90;99.90;;;;;;5034385;28;20254;-67
2023/06/07 06:57:44;;;;;;;6.75;2.83;;;12.90;99.90;;;;;;5033403;28;20316;-73
2023/06/07 07:00:11;;;;;;;13.13;2.50;;;13.10;99.90;;;;;;5032235;28;20037;-68
2023/06/07 07:02:37;;;;;;;5.72;2.03;;;13.20;99.90;;;;;;5031139;28;20037;-67
2023/06/07 07:05:05;;;;;;;5.10;2.15;;;13.30;99.90;;;;;;5030750;28;20025;-67
2023/06/07 07:07:32;;;;;;;4.28;2.47;;;13.30;99.90;;;;;;5029541;28;20028;-65
2023/06/07 07:09:59;;;;;;;2.97;1.77;;;13.30;99.90;;;;;;5025086;28;20120;-67
2023/06/07 07:12:28;;;;;;;8.38;2.72;;;13.40;99.90;;;;;;5025992;28;20030;-67
2023/06/07 07:14:54;;;;;;;4.75;2.17;;;13.40;99.90;;;;;;5029789;28;20421;-73
2023/06/07 07:17:20;;;;;;;11.50;3.35;;;13.50;99.90;;;;;;5019366;28;20405;-66
2023/06/07 07:19:46;;;;;;;2.25;1.50;;;13.40;99.90;;;;;;5028008;28;20028;-65
2023/06/07 07:22:12;;;;;;;9.77;2.20;;;13.60;99.90;;;;;;5023822;28;20033;-66
2023/06/07 07:24:38;;;;;;;6.40;1.63;;;13.60;99.90;;;;;;5026579;28;20410;-68
2023/06/07 07:27:08;;;;;;;10.93;2.20;;;13.70;99.90;;;;;;5020296;28;20026;-67
2023/06/07 07:29:34;;;;;;;12.68;2.55;;;13.80;99.90;;;;;;5023069;28;20346;-66
2023/06/07 07:32:00;;;;;;;;;;;13.80;99.90;;;;;;5022066;28;20109;-71
2023/06/07 07:34:26;;;;;;;6.77;1.67;;;13.70;99.90;;;;;;5026676;28;20376;-66
2023/06/07 07:36:53;;;;;;;3.90;1.80;;;13.70;99.90;;;;;;5031793;28;20024;-67
2023/06/07 07:39:21;;;;;;;11.50;2.53;;;13.70;99.90;;;;;;5026673;28;20021;-66
2023/06/07 07:41:47;;;;;;;7.30;2.40;;;13.80;99.90;;;;;;5027771;28;20036;-65
2023/06/07 07:44:13;;;;;;;5.40;2.33;;;13.70;99.90;;;;;;5028559;28;20661;-67
2023/06/07 07:46:39;;;;;;;10.67;2.40;;;13.80;99.90;;;;;;5030800;28;20028;-66
2023/06/07 07:49:05;;;;;;;6.93;2.10;;;13.80;99.90;;;;;;5023569;28;20045;-72
2023/06/07 07:51:31;;;;;;;9.10;2.07;;;13.70;99.90;;;;;;5027347;28;20364;-68
2023/06/07 07:53:56;;;;;;;3.97;1.70;;;13.70;99.90;;;;;;5025527;28;20022;-67
2023/06/07 07:56:22;;;;;;;9.03;1.90;;;13.90;99.90;;;;;;5027820;28;20321;-67
2023/06/07 07:58:49;;;;;;;7.22;2.47;;;14.00;99.90;;;;;;5026553;28;20021;-67
2023/06/07 08:01:17;;;;;;;12.07;2.05;;;14.00;99.90;;;;;;5031634;28;20378;-67
2023/06/07 08:03:43;;;;;;;10.98;2.10;;;14.20;99.90;;;;;;5025132;28;20104;-68
2023/06/07 08:06:09;;;;;;;3.08;1.52;;;14.20;99.90;;;;;;5023776;28;20041;-73
2023/06/07 08:08:35;;;;;;;4.43;1.60;;;14.20;99.90;;;;;;5024678;28;20030;-66
2023/06/07 08:11:01;;;;;;;5.77;1.90;;;14.30;99.90;;;;;;5032583;28;20391;-68
2023/06/07 08:13:28;;;;;;;3.03;1.70;;;14.20;99.90;;;;;;5031527;28;20278;-67
2023/06/07 08:15:54;;;;;;;8.35;2.00;;;14.30;99.90;;;;;;5028868;28;20064;-73
2023/06/07 08:18:20;;;;;;;7.87;2.03;;;14.50;99.90;;;;;;5031070;28;20052;-66
2023/06/07 08:20:45;;;;;;;10.90;2.40;;;14.50;99.90;;;;;;5030712;28;20028;-65
2023/06/07 08:23:11;;;;;;;7.17;2.13;;;14.60;99.90;;;;;;5028639;28;20029;-68
2023/06/07 08:25:37;;;;;;;7.33;2.17;;;14.60;99.90;;;;;;5027716;28;20021;-68
2023/06/07 08:28:04;;;;;;;11.07;2.13;;;14.60;99.90;;;;;;5026268;28;20025;-68
2023/06/07 08:30:31;;;;;;;6.85;1.95;;;14.80;99.90;;;;;;5025521;28;20254;-68
2023/06/07 08:32:57;;;;;;;2.70;1.67;;;14.90;99.90;;;;;;5026190;28;20055;-73
2023/06/07 08:35:23;;;;;;;4.38;2.00;;;14.90;99.90;;;;;;5029734;28;20022;-68
2023/06/07 08:37:49;;;;;;;2.72;1.70;;;14.90;99.90;;;;;;5028926;28;20032;-67
2023/06/07 08:40:19;;;;;;;7.13;1.75;;;15.00;99.90;;;;;;5029771;28;20329;-73
2023/06/07 08:42:45;;;;;;;3.08;1.73;;;15.10;99.90;;;;;;5025006;28;20022;-68
2023/06/07 08:45:12;;;;;;;4.97;2.00;;;15.00;99.90;;;;;;5023946;28;20033;-67
2023/06/07 08:47:39;;;;;;;5.13;1.52;;;15.00;99.90;;;;;;5024997;28;20319;-67
2023/06/07 08:50:10;;;;;;;6.00;2.03;;;15.00;99.90;;;;;;5028622;28;20362;-73
2023/06/07 08:52:40;;;;;;;10.52;2.35;;;15.00;99.90;;;;;;5031631;28;20028;-66
2023/06/07 08:55:12;;;;;;;8.85;2.10;;;15.10;99.90;;;;;;5018261;28;20014;-66
2023/06/07 08:57:39;;;;;;;7.47;2.72;;;15.20;99.90;;;;;;5030276;28;20112;-75
2023/06/07 09:00:08;;;;;;;6.88;1.95;;;15.40;99.90;;;;;;5028694;28;20022;-67
2023/06/07 09:02:34;;;;;;;14.02;3.20;;;15.20;99.90;;;;;;5027931;28;20025;-68
2023/06/07 09:05:06;;;;;;;8.85;3.20;;;15.20;99.90;;;;;;5034437;28;20049;-68
2023/06/07 09:07:33;;;;;;;7.68;2.78;;;15.40;99.90;;;;;;5027800;28;20036;-68
2023/06/07 09:09:59;;;;;;;6.75;2.42;;;15.40;99.90;;;;;;5029905;28;20030;-68
2023/06/07 09:12:25;;;;;;;6.80;1.90;;;15.30;99.90;;;;;;5030983;28;20040;-68
2023/06/07 09:14:52;;;;;;;3.13;1.98;;;15.40;99.90;;;;;;5023752;28;20045;-68
2023/06/07 09:17:18;;;;;;;6.00;1.95;;;15.60;99.90;;;;;;5030062;28;20312;-68
2023/06/07 09:19:44;;;;;;;7.47;2.67;;;15.50;99.90;;;;;;5024402;28;20022;-67
2023/06/07 09:22:13;;;;;;;4.93;1.88;;;15.50;99.90;;;;;;5025754;28;20262;-74
2023/06/07 09:24:42;;;;;;;6.13;2.67;;;15.70;99.90;;;;;;5029665;28;20412;-66
2023/06/07 09:27:09;;;;;;;7.43;2.15;;;15.60;99.90;;;;;;5030076;28;20021;-65
2023/06/07 09:29:42;;;;;;;8.50;3.33;;;15.40;99.90;;;;;;5030758;28;20029;-67
2023/06/07 09:32:21;;;;;;;13.75;2.80;;;15.40;99.90;;;;;;5025072;28;20026;-68
2023/06/07 09:34:48;;;;;;;9.27;2.70;;;15.40;99.90;;;;;;5023275;28;20029;-74
2023/06/07 09:37:17;;;;;;;5.13;1.52;;;15.30;99.90;;;;;;5031339;28;20104;-67
2023/06/07 09:39:46;;;;;;;4.60;1.83;;;15.20;99.90;;;;;;5029180;28;20455;-67
2023/06/07 09:42:15;;;;;;;14.15;2.30;;;15.40;99.90;;;;;;5029466;28;20034;-66
2023/06/07 09:44:42;;;;;;;12.63;2.47;;;15.70;99.90;;;;;;5030176;28;20026;-68
2023/06/07 09:47:23;;;;;;;11.45;2.88;;;15.80;99.90;;;;;;5034370;28;20032;-68
2023/06/07 09:49:54;;;;;;;2.10;1.17;;;15.90;99.90;;;;;;5027878;28;20047;-66
2023/06/07 09:52:20;;;;;;;7.47;2.33;;;15.70;99.90;;;;;;5028307;28;20047;-67
2023/06/07 09:54:48;;;;;;;3.17;2.13;;;15.70;99.90;;;;;;5020351;28;20041;-68
2023/06/07 09:57:26;;;;;;;8.23;2.70;;;15.80;99.90;;;;;;5016692;28;20057;-68
2023/06/07 10:00:14;;;;;;;5.05;2.67;;;15.80;99.90;;;;;;5021972;28;20032;-68
2023/06/07 10:02:44;;;;;;;9.10;3.05;;;16.00;99.90;;;;;;5025135;28;20112;-67
2023/06/07 10:05:14;;;;;;;5.93;2.53;;;16.00;99.90;;;;;;5032738;28;20050;-67
2023/06/07 10:07:48;;;;;;;10.05;2.95;;;16.00;99.90;;;;;;5033305;28;20091;-68
2023/06/07 10:10:17;;;;;;;13.85;2.72;;;15.90;99.90;;;;;;5029805;28;20026;-74
2023/06/07 10:12:44;;;;;;;4.65;2.22;;;15.80;99.90;;;;;;5014352;28;20401;-68
2023/06/07 10:15:13;;;;;;;7.55;2.38;;;15.80;99.90;;;;;;5014534;28;20318;-68
2023/06/07 10:17:55;;;;;;;5.30;2.40;;;15.80;99.90;;;;;;5017609;28;20064;-67
2023/06/07 10:20:33;;;;;;;7.25;2.70;;;15.70;99.90;;;;;;5026717;28;20022;-67
2023/06/07 10:23:03;;;;;;;6.68;2.50;;;15.70;99.90;;;;;;5028806;28;20034;-67
2023/06/07 10:25:33;;;;;;;6.13;2.70;;;15.80;99.90;;;;;;5029890;28;20052;-69
2023/06/07 10:28:04;;;;;;;6.85;2.22;;;15.90;99.90;;;;;;5030307;28;20049;-66
2023/06/07 10:30:32;;;;;;;7.28;2.90;;;16.00;99.90;;;;;;5029172;28;20021;-67
2023/06/07 10:33:04;;;;;;;7.15;2.83;;;16.10;99.90;;;;;;5027126;28;20034;-67
2023/06/07 10:35:30;;;;;;;11.95;3.25;;;16.10;99.90;;;;;;5029774;28;20359;-68
2023/06/07 10:37:56;;;;;;;5.95;2.50;;;16.10;99.90;;;;;;5019833;28;20080;-67
2023/06/07 10:40:23;;;;;;;19.15;3.10;;;16.20;99.90;;;;;;5020934;28;20108;-68
2023/06/07 10:42:49;;;;;;;;;;;16.40;99.90;;;;;;5031655;28;20416;-68
2023/06/07 10:45:19;;;;;;;7.28;2.65;;;16.30;99.90;;;;;;5026816;28;19909;-67
2023/06/07 10:47:48;;;;;;;7.63;2.08;;;16.30;99.90;;;;;;5026965;28;20026;-66
2023/06/07 10:50:32;;;;;;;9.63;2.08;;;16.40;99.90;;;;;;5017845;28;20033;-68
2023/06/07 10:52:59;;;;;;;8.48;2.80;;;16.30;99.90;;;;;;5034002;28;20032;-66
2023/06/07 10:55:27;;;;;;;6.03;2.80;;;16.40;99.90;;;;;;5029606;28;20362;-68
2023/06/07 10:57:53;;;;;;;9.43;2.55;;;16.50;99.90;;;;;;5030128;28;20045;-68
2023/06/07 11:00:33;;;;;;;14.73;2.53;;;16.40;99.90;;;;;;5019048;28;20076;-68
2023/06/07 11:03:10;;;;;;;8.93;2.75;;;16.60;99.90;;;;;;5020071;28;20053;-67
2023/06/07 11:06:08;;;;;;;8.70;3.78;;;16.50;99.90;;;;;;5023835;28;20030;-67
2023/06/07 11:08:38;;;;;;;5.80;2.35;;;16.40;99.90;;;;;;5030908;28;20022;-66
2023/06/07 11:11:26;;;;;;;7.90;3.08;;;16.50;99.90;;;;;;5027689;28;20026;-69
2023/06/07 11:13:54;;;;;;;11.02;2.78;;;16.60;99.90;;;;;;5016504;28;20030;-69
2023/06/07 11:16:23;;;;;;;7.20;2.83;;;16.60;99.90;;;;;;5019411;28;20029;-68
2023/06/07 11:19:08;;;;;;;7.10;2.05;;;16.60;99.90;;;;;;5020852;28;20026;-66
2023/06/07 11:21:55;;;;;;;9.25;2.42;;;16.60;99.90;;;;;;5010517;28;20113;-66
2023/06/07 11:24:21;;;;;;;7.55;2.75;;;16.80;99.90;;;;;;5029517;28;20120;-68
2023/06/07 11:26:56;;;;;;;8.18;3.03;;;16.80;99.90;;;;;;5028610;28;20033;-68
2023/06/07 11:29:22;;;;;;;13.60;2.75;;;16.80;99.90;;;;;;5030529;28;20297;-69
2023/06/07 11:32:01;;;;;;;10.10;2.72;;;16.90;99.90;;;;;;5034763;28;20029;-68
2023/06/07 11:34:29;;;;;;;6.63;2.72;;;16.90;99.90;;;;;;5030198;28;20332;-67
2023/06/07 11:37:14;;;;;;;9.43;2.25;;;16.90;99.90;;;;;;5027469;28;20158;-68
2023/06/07 11:39:40;;;;;;;6.38;3.40;;;16.90;99.90;;;;;;5028771;28;20064;-67
2023/06/07 11:42:06;;;;;;;10.32;3.13;;;16.80;99.90;;;;;;5027908;28;20033;-71
2023/06/07 11:44:36;;;;;;;4.72;2.08;;;16.90;99.90;;;;;;5030201;28;20065;-67
2023/06/07 11:47:07;;;;;;;9.77;3.63;;;16.90;99.90;;;;;;5033607;28;20439;-66
2023/06/07 11:49:35;;;;;;;5.72;2.50;;;17.00;99.90;;;;;;5030519;28;20052;-67
2023/06/07 11:52:01;;;;;;;9.13;2.78;;;17.00;99.90;;;;;;5026740;28;20040;-67
2023/06/07 11:54:27;;;;;;;7.50;3.17;;;17.10;99.90;;;;;;5028032;28;20030;-68
2023/06/07 11:56:53;;;;;;;6.43;2.85;;;17.20;99.90;;;;;;5028939;28;20049;-66
2023/06/07 11:59:23;;;;;;;8.70;3.58;;;17.50;99.90;;;;;;5028259;28;20037;-78
2023/06/07 12:01:55;;;;;;;1.38;0.70;;;17.40;99.90;;;;;;5026414;28;20353;-68
2023/06/07 12:04:22;;;;;;;13.65;3.67;;;17.30;99.90;;;;;;5029391;28;20045;-68
2023/06/07 12:06:49;;;;;;;5.63;2.55;;;17.30;99.90;;;;;;5027043;28;20028;-68
2023/06/07 12:09:19;;;;;;;5.95;3.08;;;17.30;99.90;;;;;;5037716;28;20053;-68
2023/06/07 12:11:46;;;;;;;9.93;2.70;;;17.30;99.90;;;;;;5030879;28;20044;-68
2023/06/07 12:14:28;;;;;;;10.20;2.78;;;17.50;99.90;;;;;;5032490;28;20057;-68
2023/06/07 12:16:55;;;;;;;6.18;3.08;;;17.40;99.90;;;;;;5027270;28;20328;-66
2023/06/07 12:19:20;;;;;;;9.20;2.47;;;17.50;99.90;;;;;;5027018;28;20022;-68
2023/06/07 12:21:46;;;;;;;15.47;3.50;;;17.40;99.90;;;;;;5028370;28;20028;-68
2023/06/07 12:24:13;;;;;;;6.60;2.97;;;17.40;99.90;;;;;;5027649;28;20037;-67
2023/06/07 12:26:39;;;;;;;6.18;2.60;;;17.50;99.90;;;;;;5029768;28;20052;-67
2023/06/07 12:29:05;;;;;;;6.03;2.65;;;17.60;99.90;;;;;;5019756;28;20025;-68
2023/06/07 12:31:31;;;;;;;5.33;3.07;;;17.60;99.90;;;;;;5018167;28;20032;-69
2023/06/07 12:33:59;;;;;;;6.78;3.03;;;17.80;99.90;;;;;;5031346;28;20033;-67
2023/06/07 12:36:36;;;;;;;4.28;2.60;;;17.80;99.90;;;;;;5030732;28;20025;-68
2023/06/07 12:39:10;;;;;;;4.88;3.00;;;17.80;99.90;;;;;;5028487;28;20331;-68
2023/06/07 12:41:40;;;;;;;6.93;3.33;;;17.80;99.90;;;;;;5027892;28;20021;-67
2023/06/07 12:44:09;;;;;;;4.65;2.65;;;17.80;99.90;;;;;;5012509;28;20408;-73
2023/06/07 12:46:34;;;;;;;5.30;2.53;;;17.90;99.90;;;;;;5015107;28;20018;-68
2023/06/07 12:49:01;;;;;;;4.30;2.70;;;18.00;99.90;;;;;;5015950;28;20245;-78
2023/06/07 12:51:30;;;;;;;7.65;2.97;;;17.90;99.90;;;;;;5017161;28;20045;-66
2023/06/07 12:53:56;;;;;;;6.22;2.58;;;17.90;99.90;;;;;;5015741;28;20044;-67